createdAt,value
2018-11-07T00:00:24.435Z,64.33
2018-11-07T00:02:52.940Z,65.17
2018-11-07T00:05:21.421Z,64.88
2018-11-07T00:07:49.964Z,65.78
2018-11-07T00:10:18.407Z,65.69
2018-11-07T00:12:46.903Z,66.11
2018-11-07T00:15:16.229Z,66.58
2018-11-07T00:17:44.678Z,67.42
2018-11-07T00:20:13.619Z,66.91
2018-11-07T00:22:42.091Z,67.08
2018-11-07T00:25:11.747Z,66.21
2018-11-07T00:27:41.053Z,66.34
2018-11-07T00:30:11.283Z,67.22
2018-11-07T00:32:40.171Z,66.60
2018-11-07T00:35:10.023Z,66.95
2018-11-07T00:38:08.969Z,66.86
2018-11-07T00:40:37.454Z,68.42
2018-11-07T00:43:06.273Z,69.09
2018-11-07T00:45:34.824Z,70.26
2018-11-07T00:48:03.625Z,61.61
2018-11-07T00:50:32.075Z,64.68
2018-11-07T00:53:00.561Z,68.81
2018-11-07T00:55:28.985Z,67.63
2018-11-07T00:57:57.464Z,68.13
2018-11-07T01:00:25.928Z,67.88
2018-11-07T01:02:54.515Z,70.18
2018-11-07T01:05:22.957Z,69.35
2018-11-07T01:07:51.452Z,68.02
2018-11-07T01:10:19.983Z,68.72
2018-11-07T01:12:48.477Z,68.88
2018-11-07T01:15:17.007Z,69.36
2018-11-07T01:17:45.459Z,69.33
2018-11-07T01:20:14.980Z,69.56
2018-11-07T01:22:44.315Z,70.12
2018-11-07T01:25:12.833Z,70.66
2018-11-07T01:27:41.549Z,69.52
2018-11-07T01:30:12.061Z,70.27
2018-11-07T01:32:40.701Z,70.69
2018-11-07T01:35:09.464Z,72.47
2018-11-07T01:37:38.099Z,72.29
2018-11-07T01:40:09.117Z,72.00
2018-11-07T01:42:37.578Z,71.45
2018-11-07T01:45:07.232Z,72.16
2018-11-07T01:47:35.973Z,72.25
2018-11-07T01:50:05.205Z,71.26
2018-11-07T01:52:33.684Z,72.88
2018-11-07T01:55:02.165Z,70.80
2018-11-07T01:57:30.669Z,71.41
2018-11-07T02:00:29.569Z,71.61
2018-11-07T02:02:58.055Z,70.33
2018-11-07T02:05:26.550Z,69.33
2018-11-07T02:07:55.055Z,70.23
2018-11-07T02:10:23.596Z,73.37
2018-11-07T02:12:52.063Z,75.29
2018-11-07T02:15:20.984Z,73.11
2018-11-07T02:17:49.476Z,75.44
2018-11-07T02:20:17.968Z,77.15
2018-11-07T02:22:46.444Z,75.66
2018-11-07T02:25:14.929Z,76.58
2018-11-07T02:27:43.430Z,74.70
2018-11-07T02:30:14.327Z,73.86
2018-11-07T02:32:42.867Z,74.76
2018-11-07T02:35:11.370Z,78.19
2018-11-07T02:37:39.905Z,79.23
2018-11-07T02:40:09.208Z,79.44
2018-11-07T02:42:37.883Z,79.36
2018-11-07T02:45:06.654Z,83.25
2018-11-07T02:47:41.276Z,86.31
2018-11-07T02:50:10.470Z,88.89
2018-11-07T02:52:38.939Z,86.52
2018-11-07T02:55:07.675Z,87.24
2018-11-07T02:57:36.274Z,86.70
2018-11-07T03:00:06.344Z,87.82
2018-11-07T03:02:34.812Z,87.13
2018-11-07T03:05:03.327Z,85.33
2018-11-07T03:07:31.768Z,83.15
2018-11-07T03:10:00.263Z,82.99
2018-11-07T03:12:29.488Z,84.10
2018-11-07T03:14:57.924Z,84.99
2018-11-07T03:17:26.396Z,82.53
2018-11-07T03:19:54.872Z,81.54
2018-11-07T03:22:23.356Z,81.07
2018-11-07T03:24:51.836Z,82.29
2018-11-07T03:27:20.371Z,81.77
2018-11-07T03:29:48.833Z,82.97
2018-11-07T03:32:17.421Z,82.01
2018-11-07T03:34:45.923Z,81.71
2018-11-07T03:37:14.411Z,83.01
2018-11-07T03:39:43.053Z,84.52
2018-11-07T03:42:11.504Z,86.11
2018-11-07T03:44:39.993Z,89.15
2018-11-07T03:47:08.580Z,87.54
2018-11-07T03:49:37.116Z,84.39
2018-11-07T03:52:05.570Z,83.48
2018-11-07T03:54:34.429Z,82.91
2018-11-07T03:57:02.949Z,86.06
2018-11-07T03:59:31.541Z,82.25
2018-11-07T04:01:59.994Z,82.92
2018-11-07T04:04:28.480Z,82.04
2018-11-07T04:06:56.961Z,80.43
2018-11-07T04:09:25.390Z,79.96
2018-11-07T04:11:53.851Z,80.80
2018-11-07T04:14:22.335Z,85.49
2018-11-07T04:16:51.467Z,87.73
2018-11-07T04:19:19.932Z,90.82
2018-11-07T04:21:48.471Z,92.67
2018-11-07T04:24:16.946Z,91.93
2018-11-07T04:26:45.460Z,87.46
2018-11-07T04:29:13.932Z,87.31
2018-11-07T04:31:42.668Z,90.43
2018-11-07T04:34:11.135Z,94.59
2018-11-07T04:36:39.644Z,90.86
2018-11-07T04:39:09.643Z,92.85
2018-11-07T04:41:38.115Z,94.51
2018-11-07T04:44:06.787Z,90.48
2018-11-07T04:46:35.271Z,89.50
2018-11-07T04:49:04.030Z,86.81
2018-11-07T04:51:32.655Z,85.26
2018-11-07T04:54:01.157Z,90.27
2018-11-07T04:56:29.655Z,87.26
2018-11-07T04:58:58.136Z,87.47
2018-11-07T05:01:26.668Z,85.80
2018-11-07T05:03:55.139Z,84.48
2018-11-07T05:06:23.716Z,84.21
2018-11-07T05:08:52.224Z,85.77
2018-11-07T05:11:20.915Z,87.07
2018-11-07T05:13:49.420Z,88.66
2018-11-07T05:16:17.936Z,86.76
2018-11-07T05:18:46.428Z,84.93
2018-11-07T05:21:15.076Z,85.53
2018-11-07T05:23:43.541Z,87.50
2018-11-07T05:26:12.183Z,84.97
2018-11-07T05:28:40.625Z,85.46
2018-11-07T05:31:09.106Z,85.72
2018-11-07T05:33:37.589Z,84.06
2018-11-07T05:36:06.984Z,85.10
2018-11-07T05:38:35.475Z,87.20
2018-11-07T05:41:03.977Z,88.61
2018-11-07T05:43:32.429Z,85.71
2018-11-07T05:46:00.900Z,86.63
2018-11-07T05:48:29.383Z,86.75
2018-11-07T05:50:58.111Z,85.08
2018-11-07T05:53:26.627Z,85.08
2018-11-07T05:55:55.306Z,84.97
2018-11-07T05:58:24.280Z,85.39
2018-11-07T06:00:52.845Z,86.74
2018-11-07T06:03:21.345Z,89.90
2018-11-07T06:05:49.887Z,88.02
2018-11-07T06:08:18.370Z,90.09
2018-11-07T06:10:46.846Z,89.41
2018-11-07T06:13:15.482Z,89.93
2018-11-07T06:15:43.964Z,90.22
2018-11-07T06:18:12.689Z,86.65
2018-11-07T06:20:41.168Z,84.96
2018-11-07T06:23:09.696Z,85.85
2018-11-07T06:25:38.511Z,85.11
2018-11-07T06:28:07.064Z,85.66
2018-11-07T06:30:35.721Z,83.12
2018-11-07T06:33:04.204Z,82.07
2018-11-07T06:35:32.716Z,85.71
2018-11-07T06:38:01.348Z,83.76
2018-11-07T06:40:29.836Z,86.87
2018-11-07T06:42:58.320Z,86.51
2018-11-07T06:45:26.821Z,89.09
2018-11-07T06:47:55.404Z,85.84
2018-11-07T06:50:23.893Z,84.62
2018-11-07T06:52:52.411Z,82.93
2018-11-07T06:55:20.931Z,83.82
2018-11-07T06:57:49.419Z,83.51
2018-11-07T07:00:18.448Z,84.96
2018-11-07T07:02:47.940Z,84.20
2018-11-07T07:05:16.739Z,86.09
2018-11-07T07:07:45.284Z,84.21
2018-11-07T07:10:15.214Z,81.44
2018-11-07T07:12:43.707Z,83.09
2018-11-07T07:15:13.829Z,80.85
2018-11-07T07:17:42.457Z,82.80
2018-11-07T07:20:13.688Z,82.27
2018-11-07T07:22:42.918Z,81.13
2018-11-07T07:25:12.423Z,78.55
2018-11-07T07:27:41.654Z,80.97
2018-11-07T07:30:12.850Z,81.81
2018-11-07T07:32:42.148Z,83.73
2018-11-07T07:35:10.785Z,83.62
2018-11-07T07:37:39.531Z,80.82
2018-11-07T07:40:09.603Z,78.53
2018-11-07T07:42:38.834Z,82.94
2018-11-07T07:45:09.415Z,82.26
2018-11-07T07:47:38.212Z,81.37
2018-11-07T07:50:08.278Z,80.36
2018-11-07T07:52:36.748Z,80.19
2018-11-07T07:55:05.588Z,79.33
2018-11-07T07:57:34.059Z,81.52
2018-11-07T08:00:02.573Z,79.75
2018-11-07T08:02:31.124Z,81.08
2018-11-07T08:04:59.612Z,77.93
2018-11-07T08:07:28.125Z,75.04
2018-11-07T08:09:56.614Z,80.75
2018-11-07T08:12:25.136Z,78.42
2018-11-07T08:14:53.615Z,73.40
2018-11-07T08:17:22.120Z,77.03
2018-11-07T08:19:50.699Z,75.58
2018-11-07T08:22:19.236Z,75.79
2018-11-07T08:24:47.691Z,73.48
2018-11-07T08:27:16.126Z,72.92
2018-11-07T08:29:44.592Z,70.47
2018-11-07T08:32:13.083Z,71.56
2018-11-07T08:34:41.596Z,72.91
2018-11-07T08:37:10.122Z,71.27
2018-11-07T08:39:38.588Z,73.88
2018-11-07T08:42:07.119Z,71.69
2018-11-07T08:44:35.551Z,70.08
2018-11-07T08:47:04.020Z,69.57
2018-11-07T08:49:32.496Z,67.45
2018-11-07T08:52:00.936Z,66.94
2018-11-07T08:54:29.424Z,68.66
2018-11-07T08:56:58.296Z,69.53
2018-11-07T08:59:26.852Z,70.49
2018-11-07T09:01:55.329Z,66.75
2018-11-07T09:04:23.817Z,66.41
2018-11-07T09:06:52.293Z,66.79
2018-11-07T09:09:20.875Z,66.49
2018-11-07T09:11:49.427Z,66.24
2018-11-07T09:14:17.921Z,65.27
2018-11-07T09:16:46.417Z,64.42
2018-11-07T09:19:15.173Z,65.19
2018-11-07T09:21:43.760Z,63.83
2018-11-07T09:24:12.887Z,65.20
2018-11-07T09:26:42.051Z,62.17
2018-11-07T09:29:10.585Z,65.59
2018-11-07T09:31:39.199Z,65.32
2018-11-07T09:34:07.684Z,64.87
2018-11-07T09:36:36.144Z,63.94
2018-11-07T09:39:07.007Z,61.83
2018-11-07T09:41:35.506Z,63.43
2018-11-07T09:44:04.351Z,64.22
2018-11-07T09:46:33.539Z,61.45
2018-11-07T09:49:02.043Z,58.72
2018-11-07T09:51:31.163Z,60.63
2018-11-07T09:54:00.485Z,57.63
2018-11-07T09:56:28.871Z,58.71
2018-11-07T09:58:57.393Z,60.00
2018-11-07T10:01:26.365Z,55.99
2018-11-07T10:03:55.089Z,58.19
2018-11-07T10:06:23.644Z,56.68
2018-11-07T10:08:52.089Z,56.29
2018-11-07T10:11:20.605Z,56.99
2018-11-07T10:13:49.104Z,55.58
2018-11-07T10:16:17.653Z,54.41
2018-11-07T10:18:46.119Z,55.55
2018-11-07T10:21:14.631Z,54.69
2018-11-07T10:23:43.160Z,54.13
2018-11-07T10:26:11.669Z,51.81
2018-11-07T10:28:40.358Z,51.05
2018-11-07T10:31:08.832Z,51.15
2018-11-07T10:33:37.564Z,54.58
2018-11-07T10:36:06.026Z,51.84
2018-11-07T10:38:34.767Z,49.95
2018-11-07T10:41:03.145Z,51.68
2018-11-07T10:43:31.687Z,49.62
2018-11-07T10:46:00.217Z,47.49
2018-11-07T10:48:28.669Z,46.90
2018-11-07T10:50:57.137Z,45.57
2018-11-07T10:53:25.608Z,44.00
2018-11-07T10:55:54.131Z,42.50
2018-11-07T10:58:22.679Z,43.55
2018-11-07T11:00:56.474Z,44.45
2018-11-07T11:03:30.339Z,40.59
2018-11-07T11:05:59.032Z,42.21
2018-11-07T11:08:27.780Z,42.14
2018-11-07T11:10:56.260Z,43.37
2018-11-07T11:13:25.911Z,42.65
2018-11-07T11:15:54.376Z,41.31
2018-11-07T11:18:22.843Z,41.87
2018-11-07T11:20:51.364Z,42.66
2018-11-07T11:23:19.916Z,40.95
2018-11-07T11:25:48.436Z,43.00
2018-11-07T11:28:16.898Z,42.34
2018-11-07T11:30:45.664Z,39.36
2018-11-07T11:33:14.804Z,42.37
2018-11-07T11:35:43.287Z,43.81
2018-11-07T11:38:11.774Z,40.68
2018-11-07T11:40:40.263Z,39.19
2018-11-07T11:43:09.015Z,37.08
2018-11-07T11:45:37.530Z,39.04
2018-11-07T11:48:06.356Z,38.43
2018-11-07T11:50:34.836Z,40.94
2018-11-07T11:53:03.348Z,38.86
2018-11-07T11:55:31.840Z,41.37
2018-11-07T11:58:00.326Z,39.67
2018-11-07T12:00:29.010Z,40.56
2018-11-07T12:02:57.738Z,40.27
2018-11-07T12:05:26.401Z,41.48
2018-11-07T12:07:54.875Z,39.35
2018-11-07T12:10:24.841Z,39.56
2018-11-07T12:12:54.656Z,41.43
2018-11-07T12:15:24.487Z,39.84
2018-11-07T12:17:53.642Z,40.55
2018-11-07T12:20:22.630Z,40.51
2018-11-07T12:22:51.686Z,38.22
2018-11-07T12:25:21.064Z,39.02
2018-11-07T12:27:49.571Z,39.09
2018-11-07T12:30:20.822Z,40.07
2018-11-07T12:32:50.303Z,35.65
2018-11-07T12:35:19.272Z,37.32
2018-11-07T12:37:48.159Z,38.97
2018-11-07T12:40:17.180Z,37.26
2018-11-07T12:42:46.265Z,40.48
2018-11-07T12:45:15.789Z,37.07
2018-11-07T12:47:44.320Z,36.84
2018-11-07T12:50:15.233Z,40.36
2018-11-07T12:52:44.657Z,39.30
2018-11-07T12:55:13.624Z,38.29
2018-11-07T12:57:42.545Z,36.88
2018-11-07T13:00:14.575Z,36.52
2018-11-07T13:02:43.132Z,37.96
2018-11-07T13:05:13.316Z,43.13
2018-11-07T13:07:42.594Z,43.81
2018-11-07T13:10:14.235Z,40.86
2018-11-07T13:12:43.888Z,40.85
2018-11-07T13:15:12.983Z,41.10
2018-11-07T13:17:41.721Z,42.82
2018-11-07T13:20:13.364Z,40.55
2018-11-07T13:22:42.709Z,39.53
2018-11-07T13:25:12.340Z,38.86
2018-11-07T13:27:41.020Z,40.38
2018-11-07T13:30:12.084Z,41.82
2018-11-07T13:32:41.143Z,39.91
2018-11-07T13:35:10.759Z,39.55
2018-11-07T13:37:40.409Z,40.03
2018-11-07T13:40:12.437Z,41.97
2018-11-07T13:42:41.475Z,42.85
2018-11-07T13:45:12.112Z,43.26
2018-11-07T13:47:41.789Z,41.20
2018-11-07T13:50:11.189Z,40.64
2018-11-07T13:52:40.218Z,39.08
2018-11-07T13:55:10.119Z,40.54
2018-11-07T13:57:39.423Z,41.04
2018-11-07T14:00:13.232Z,40.60
2018-11-07T14:02:41.828Z,40.29
2018-11-07T14:05:11.331Z,41.79
2018-11-07T14:07:40.231Z,43.98
2018-11-07T14:10:11.771Z,43.76
2018-11-07T14:12:41.009Z,45.53
2018-11-07T14:15:12.447Z,46.00
2018-11-07T14:17:41.576Z,43.72
2018-11-07T14:20:10.392Z,44.58
2018-11-07T14:22:39.511Z,44.33
2018-11-07T14:25:09.238Z,43.99
2018-11-07T14:27:38.217Z,44.38
2018-11-07T14:30:11.131Z,45.81
2018-11-07T14:32:45.746Z,47.63
2018-11-07T14:35:14.645Z,48.73
2018-11-07T14:37:43.356Z,48.57
2018-11-07T14:40:11.966Z,49.68
2018-11-07T14:42:40.739Z,50.18
2018-11-07T14:45:10.882Z,49.94
2018-11-07T14:47:39.931Z,51.37
2018-11-07T14:50:09.516Z,52.79
2018-11-07T14:52:38.539Z,50.24
2018-11-07T14:55:09.004Z,50.71
2018-11-07T14:57:37.813Z,51.11
2018-11-07T15:00:12.452Z,50.12
2018-11-07T15:02:42.339Z,52.00
2018-11-07T15:05:12.255Z,53.15
2018-11-07T15:07:41.373Z,53.91
2018-11-07T15:10:11.024Z,56.05
2018-11-07T15:12:39.709Z,55.62
2018-11-07T15:15:10.242Z,55.29
2018-11-07T15:17:38.688Z,55.56
2018-11-07T15:20:08.278Z,55.93
2018-11-07T15:22:36.818Z,56.20
2018-11-07T15:25:06.059Z,56.89
2018-11-07T15:27:34.739Z,57.46
2018-11-07T15:30:03.488Z,57.60
2018-11-07T15:32:31.980Z,56.97
2018-11-07T15:35:00.437Z,58.20
2018-11-07T15:37:28.965Z,58.55
2018-11-07T15:39:58.453Z,59.09
2018-11-07T15:42:26.992Z,60.90
2018-11-07T15:44:55.460Z,61.73
2018-11-07T15:47:23.996Z,63.13
2018-11-07T15:49:57.638Z,64.38
2018-11-07T15:52:26.177Z,64.03
2018-11-07T15:54:54.635Z,62.89
2018-11-07T15:57:23.120Z,62.97
2018-11-07T15:59:51.616Z,64.90
2018-11-07T16:02:20.207Z,63.95
2018-11-07T16:04:48.675Z,63.97
2018-11-07T16:07:17.269Z,64.06
2018-11-07T16:09:45.741Z,64.82
2018-11-07T16:12:14.204Z,63.82
2018-11-07T16:14:42.672Z,64.40
2018-11-07T16:17:11.164Z,64.33
2018-11-07T16:19:40.016Z,64.57
2018-11-07T16:22:08.609Z,65.38
2018-11-07T16:24:37.080Z,65.65
2018-11-07T16:27:06.108Z,66.03
2018-11-07T16:29:34.573Z,66.07
2018-11-07T16:32:03.176Z,66.32
2018-11-07T16:34:31.637Z,66.39
2018-11-07T16:37:00.179Z,66.56
2018-11-07T16:39:28.630Z,67.54
2018-11-07T16:42:03.465Z,67.09
2018-11-07T16:44:32.032Z,67.10
2018-11-07T16:47:00.510Z,66.85
2018-11-07T16:49:29.003Z,67.20
2018-11-07T16:51:57.486Z,68.51
2018-11-07T16:54:25.994Z,68.33
2018-11-07T16:56:54.467Z,68.41
2018-11-07T16:59:22.943Z,70.31
2018-11-07T17:01:51.468Z,69.79
2018-11-07T17:04:20.234Z,69.77
2018-11-07T17:06:48.762Z,69.08
2018-11-07T17:09:17.247Z,69.90
2018-11-07T17:11:45.731Z,70.14
2018-11-07T17:14:14.513Z,70.61
2018-11-07T17:16:43.026Z,70.48
2018-11-07T17:19:12.029Z,73.18
2018-11-07T17:21:40.821Z,71.75
2018-11-07T17:24:09.391Z,71.30
2018-11-07T17:26:37.869Z,70.81
2018-11-07T17:29:06.475Z,70.98
2018-11-07T17:31:34.955Z,71.22
2018-11-07T17:34:03.804Z,70.84
2018-11-07T17:36:32.515Z,70.49
2018-11-07T17:39:01.021Z,72.94
2018-11-07T17:41:29.508Z,71.31
2018-11-07T17:43:58.105Z,70.94
2018-11-07T17:46:26.596Z,74.92
2018-11-07T17:48:55.089Z,74.93
2018-11-07T17:51:23.597Z,73.80
2018-11-07T17:53:52.135Z,75.23
2018-11-07T17:56:20.920Z,75.42
2018-11-07T17:58:49.614Z,75.18
2018-11-07T18:01:18.384Z,74.89
2018-11-07T18:03:46.880Z,74.78
2018-11-07T18:06:15.435Z,74.59
2018-11-07T18:08:44.127Z,74.74
2018-11-07T18:11:12.930Z,73.54
2018-11-07T18:13:42.241Z,74.62
2018-11-07T18:16:10.802Z,74.36
2018-11-07T18:18:40.286Z,74.60
2018-11-07T18:21:08.911Z,75.91
2018-11-07T18:23:37.774Z,76.67
2018-11-07T18:26:06.616Z,76.89
2018-11-07T18:28:35.387Z,76.96
2018-11-07T18:31:04.372Z,76.08
2018-11-07T18:33:32.960Z,75.57
2018-11-07T18:36:01.765Z,79.79
2018-11-07T18:38:30.383Z,80.32
2018-11-07T18:40:59.641Z,79.22
2018-11-07T18:43:28.157Z,81.69
2018-11-07T18:45:56.663Z,81.25
2018-11-07T18:48:25.411Z,81.38
2018-11-07T18:50:54.235Z,79.78
2018-11-07T18:53:22.693Z,80.24
2018-11-07T18:55:51.207Z,78.47
2018-11-07T18:58:19.707Z,78.89
2018-11-07T19:00:48.714Z,77.68
2018-11-07T19:03:17.227Z,78.51
2018-11-07T19:05:45.818Z,79.54
2018-11-07T19:08:14.678Z,80.54
2018-11-07T19:10:43.954Z,79.73
2018-11-07T19:13:12.468Z,79.89
2018-11-07T19:15:40.959Z,80.57
2018-11-07T19:18:10.402Z,78.91
2018-11-07T19:20:38.962Z,79.10
2018-11-07T19:23:07.405Z,79.80
2018-11-07T19:25:35.878Z,79.29
2018-11-07T19:28:04.877Z,80.16
2018-11-07T19:30:33.360Z,81.84
2018-11-07T19:33:02.227Z,80.49
2018-11-07T19:35:30.933Z,80.02
2018-11-07T19:37:59.625Z,80.47
2018-11-07T19:40:28.468Z,82.45
2018-11-07T19:42:56.912Z,86.66
2018-11-07T19:45:25.401Z,83.53
2018-11-07T19:47:53.947Z,83.40
2018-11-07T19:50:23.523Z,82.71
2018-11-07T19:52:52.847Z,84.08
2018-11-07T19:55:23.100Z,83.59
2018-11-07T19:57:54.430Z,82.87
2018-11-07T20:00:23.225Z,86.34
2018-11-07T20:02:51.896Z,87.51
2018-11-07T20:05:20.647Z,85.39
2018-11-07T20:07:49.170Z,85.25
2018-11-07T20:10:19.528Z,85.68
2018-11-07T20:12:48.495Z,84.70
2018-11-07T20:15:18.487Z,84.47
2018-11-07T20:17:47.204Z,85.42
2018-11-07T20:20:16.087Z,85.72
2018-11-07T20:22:44.812Z,84.71
2018-11-07T20:25:14.049Z,84.45
2018-11-07T20:27:43.263Z,83.21
2018-11-07T20:30:13.649Z,86.41
2018-11-07T20:32:42.848Z,84.34
2018-11-07T20:35:12.936Z,86.90
2018-11-07T20:37:41.959Z,84.60
2018-11-07T20:40:13.685Z,85.29
2018-11-07T20:42:42.420Z,85.33
2018-11-07T20:45:12.004Z,87.13
2018-11-07T20:47:40.729Z,85.86
2018-11-07T20:50:12.135Z,87.59
2018-11-07T20:52:41.128Z,87.23
2018-11-07T20:55:10.392Z,84.40
2018-11-07T20:57:38.928Z,86.36
2018-11-07T21:00:11.889Z,85.41
2018-11-07T21:02:40.893Z,87.41
2018-11-07T21:05:09.783Z,88.64
2018-11-07T21:07:39.627Z,85.89
2018-11-07T21:10:13.021Z,83.29
2018-11-07T21:12:42.216Z,87.17
2018-11-07T21:15:11.886Z,88.93
2018-11-07T21:17:41.507Z,86.42
2018-11-07T21:20:40.629Z,85.87
2018-11-07T21:23:09.132Z,85.99
2018-11-07T21:25:37.615Z,88.84
2018-11-07T21:28:06.143Z,91.26
2018-11-07T21:30:34.814Z,89.47
2018-11-07T21:33:03.252Z,89.73
2018-11-07T21:35:31.709Z,90.20
2018-11-07T21:38:00.180Z,90.08
2018-11-07T21:40:28.676Z,87.74
2018-11-07T21:42:57.215Z,86.67
2018-11-07T21:45:25.743Z,87.61
2018-11-07T21:47:54.230Z,88.96
2018-11-07T21:50:22.745Z,91.94
2018-11-07T21:52:51.259Z,91.29
2018-11-07T21:55:19.747Z,91.79
2018-11-07T21:57:48.775Z,88.46
2018-11-07T22:00:18.615Z,87.66
2018-11-07T22:02:47.325Z,88.85
2018-11-07T22:05:17.021Z,89.11
2018-11-07T22:07:46.728Z,88.72
2018-11-07T22:10:16.786Z,87.71
2018-11-07T22:12:45.611Z,87.16
2018-11-07T22:15:14.139Z,90.09
2018-11-07T22:17:42.591Z,88.87
2018-11-07T22:20:14.132Z,87.34
2018-11-07T22:22:42.958Z,85.63
2018-11-07T22:25:11.771Z,87.87
2018-11-07T22:27:40.235Z,86.06
2018-11-07T22:30:10.757Z,88.36
2018-11-07T22:32:39.982Z,87.33
2018-11-07T22:35:10.149Z,86.78
2018-11-07T22:37:38.673Z,88.46
2018-11-07T22:40:09.040Z,90.33
2018-11-07T22:42:37.548Z,91.30
2018-11-07T22:45:06.755Z,91.09
2018-11-07T22:47:35.784Z,90.33
2018-11-07T22:50:04.484Z,92.42
2018-11-07T22:52:32.981Z,94.56
2018-11-07T22:55:01.496Z,98.76
2018-11-07T22:57:30.017Z,97.20
2018-11-07T22:59:58.690Z,95.18
2018-11-07T23:02:27.194Z,94.87
2018-11-07T23:05:58.249Z,95.96
2018-11-07T23:08:27.000Z,96.28
2018-11-07T23:10:55.474Z,96.01
2018-11-07T23:13:24.396Z,97.63
2018-11-07T23:15:52.911Z,92.90
2018-11-07T23:18:21.696Z,91.15
2018-11-07T23:20:50.157Z,94.08
2018-11-07T23:23:18.621Z,92.34
2018-11-07T23:25:47.534Z,93.47
2018-11-07T23:28:16.036Z,94.02
2018-11-07T23:30:44.640Z,90.00
2018-11-07T23:33:13.104Z,87.68
2018-11-07T23:35:41.597Z,93.57
2018-11-07T23:38:10.074Z,90.70
2018-11-07T23:40:38.573Z,88.76
2018-11-07T23:43:07.061Z,88.41
2018-11-07T23:45:35.572Z,92.50
2018-11-07T23:48:04.041Z,96.22
2018-11-07T23:50:32.535Z,97.67
2018-11-07T23:53:01.033Z,95.84
2018-11-07T23:55:29.504Z,95.38
2018-11-07T23:57:58.220Z,96.04
